Gotebo, OK

4:31 AM CDT on July 31, 2014 (GMT -0500)
Weatherford (KOJA) Elev 1604 ft | 35.54 °N, 98.67 °W | Change Station

Current weather conditions updated 16 minutes ago

Overcast
Overcast
77 °F
Feels Like 77 °F
N
13
Wind Variable Wind from NNE
Gusts 18 mph

Today is forecast to be Much Cooler than yesterday.

Today
High -- | Low -- °F
--% Chance of Precip.
Yesterday
High -- | Low -- °F
Precip. -- in
6:44 AM 8:39 PM
Waxing Crescent, 17% visible
Pressure 30.09 in
Visibility 3.0 miles
Clouds Overcast 300 ft
Dew Point 73 °F
Humidity 89%
Rainfall 0.00 in
Snow Depth Not available.
UV 0 out of 12
Pollen .70 out of 12
Air Quality Not available.
Flu Activity Not available.
METAR KOJA 310915Z AUTO 03011G16KT 3SM BR OVC003 25/23 A3009 RMK AO2

More Conditions Fewer Conditions

Pressure 30.09 in
Visibility 3.0 miles
Clouds Overcast 300 ft
Dew Point 73 °F
Humidity 89%
Rainfall 0.00 in
Snow Depth Not available.
UV 0 out of 12
Pollen .70 out of 12
Air Quality Not available.
Flu Activity Not available.
METAR KOJA 310915Z AUTO 03011G16KT 3SM BR OVC003 25/23 A3009 RMK AO2

More Conditions Fewer Conditions

10-Day Weather Forecast

Almanac

Astronomy

Jul. 31, 2014 Rise Set
Actual Time 6:44 AM CDT 8:39 PM CDT
Civil Twilight 6:16 AM CDT 9:07 PM CDT
Nautical Twilight 5:42 AM CDT 9:40 PM CDT
Astronomical Twilight 5:06 AM CDT 10:16 PM CDT
Moon 11:00 AM CDT 11:06 PM CDT
Length of Visible Light 14h 50m
Length of Day
13h 55m
Tomorrow will be 1m 38s shorter.
Waxing Crescent, 17% of the Moon is Illuminated
Today
Waxing Crescent
Aug 3
First Quarter
Aug 10
Full
Aug 17
Last Quarter
Aug 25
New

Today's Extremes

State Highs State Lows

Community

WunderPhotos

Upload Photos

1,739,284 photos uploaded!

Nearby

Snow Depth

Station Depth Elevation
No new snow has been reported.

Earthquake Activity

City Distance Mag. Time & Date
Perry, Oklahoma 115 miles 2.8 4:28 AM CDT
2014-07-27
Helena, Oklahoma 114 miles 3.3 11:56 PM CDT
2014-07-24
Guthrie, Oklahoma 91 miles 2.7 5:27 AM CDT
2014-07-24
Minimum magnitude displayed is 2.5.

Coastal Water Temperatures

Place Temperature
No Stations Reporting

Nearby Weather Stations

Station Location Temp. Dew Point Humidity Wind Precip. Elev Updated Type
Carnegie, Carnegie, OK 68.2 °F 68 °F 100% NNE  at  5.8 mph 0.00 in / hr 1358 ft 4:31 AM CDT Rapid Fire
Petzold Consulting, Lone Wolf, OK 66.6 °F 66 °F 99% North  at  4.0 mph 0.00 in / hr 1588 ft 4:31 AM CDT Rapid Fire
RAWS WICHITA OK, Meers, OK 67 °F 65 °F 94% NNE  at  13 mph 0.00 in / hr 1832 ft 3:29 AM CDT MADIS

Show More Stations Show Fewer Stations